Time;durP1;ratioP1;P1;durP2;ratioP2;P2;SDS_P1;SDS_P2;PMS_P1;PMS_P2;Temp;Humidity;BMP_temperature;BMP_pressure;BME280_temperature;BME280_humidity;BME280_pressure;Samples;Min_cycle;Max_cycle;Signal;HPM_P1;HPM_P2
2021/10/25 00:00:15;;;;;;;;;;;14.00;99.90;;;;;;4974971;28;19993;-74
2021/10/25 00:02:40;;;;;;;;;;;14.00;99.90;;;;;;4975444;28;19972;-74
2021/10/25 00:05:06;;;;;;;;;;;14.10;99.90;;;;;;4975122;28;19913;-74
2021/10/25 00:07:32;;;;;;;;;;;14.10;99.90;;;;;;4974805;28;20383;-74
2021/10/25 00:09:58;;;;;;;;;;;14.10;99.90;;;;;;4974892;28;20319;-74
2021/10/25 00:12:23;;;;;;;;;;;14.10;99.90;;;;;;4975178;28;19906;-74
2021/10/25 00:14:49;;;;;;;;;;;14.10;99.90;;;;;;4974810;28;19906;-74
2021/10/25 00:17:14;;;;;;;;;;;14.10;99.90;;;;;;4975386;28;19910;-74
2021/10/25 00:19:40;;;;;;;;;;;14.00;99.90;;;;;;4974795;28;19993;-74
2021/10/25 00:22:05;;;;;;;;;;;14.00;99.90;;;;;;4974690;28;20018;-74
2021/10/25 00:24:31;;;;;;;;;;;14.00;99.90;;;;;;4975022;28;19910;-74
2021/10/25 00:26:56;;;;;;;;;;;14.00;99.90;;;;;;4974505;28;19918;-74
2021/10/25 00:29:22;;;;;;;;;;;13.90;99.90;;;;;;4989614;28;20297;-74
2021/10/25 00:31:47;;;;;;;;;;;13.90;99.90;;;;;;4974672;28;19906;-74
2021/10/25 00:34:14;;;;;;;;;;;14.00;99.90;;;;;;4974948;28;19906;-74
2021/10/25 00:36:40;;;;;;;;;;;14.00;99.90;;;;;;4989609;28;20298;-74
2021/10/25 00:39:05;;;;;;;;;;;14.10;99.90;;;;;;4974939;28;19913;-74
2021/10/25 00:41:31;;;;;;;;;;;14.10;99.90;;;;;;4974892;28;19956;-74
2021/10/25 00:43:57;;;;;;;;;;;14.10;99.90;;;;;;4974588;28;19910;-74
2021/10/25 00:46:22;;;;;;;;;;;14.00;99.90;;;;;;4974824;28;19910;-74
2021/10/25 00:48:48;;;;;;;;;;;14.10;99.90;;;;;;4974853;28;19964;-74
2021/10/25 00:51:14;;;;;;;;;;;14.10;99.90;;;;;;4974832;28;19954;-74
2021/10/25 00:53:40;;;;;;;;;;;14.10;99.90;;;;;;4974475;28;19914;-74
2021/10/25 00:56:06;;;;;;;;;;;14.00;99.90;;;;;;4974544;28;20317;-74
2021/10/25 00:58:32;;;;;;;;;;;13.90;99.90;;;;;;4974460;28;19949;-74
2021/10/25 01:00:58;;;;;;;;;;;13.80;99.90;;;;;;4975016;28;19996;-74
2021/10/25 01:03:23;;;;;;;;;;;13.90;99.90;;;;;;4974422;28;19906;-74
2021/10/25 01:05:49;;;;;;;;;;;13.80;99.90;;;;;;4974321;28;20346;-75
2021/10/25 01:08:14;;;;;;;;;;;13.80;99.90;;;;;;4974690;28;19925;-74
2021/10/25 01:10:41;;;;;;;;;;;13.80;99.90;;;;;;4974595;28;19996;-74
2021/10/25 01:13:07;;;;;;;;;;;13.80;99.90;;;;;;4974599;28;19906;-74
2021/10/25 01:15:33;;;;;;;;;;;13.80;99.90;;;;;;4974380;28;19933;-74
2021/10/25 01:17:59;;;;;;;;;;;13.90;99.90;;;;;;4974806;28;19906;-74
2021/10/25 01:20:26;;;;;;;;;;;14.00;99.90;;;;;;4977764;28;19992;-74
2021/10/25 01:22:52;;;;;;;;;;;14.00;99.90;;;;;;4977670;28;20375;-74
2021/10/25 01:25:17;;;;;;;;;;;13.90;99.90;;;;;;4978121;28;20013;-74
2021/10/25 01:27:43;;;;;;;;;;;13.90;99.90;;;;;;4977453;28;19924;-74
2021/10/25 01:30:09;;;;;;;;;;;13.90;99.90;;;;;;4977829;28;19997;-75
2021/10/25 01:32:34;;;;;;;;;;;13.90;99.90;;;;;;4977536;28;19922;-74
2021/10/25 01:35:00;;;;;;;;;;;13.90;99.90;;;;;;4977745;28;19913;-74
2021/10/25 01:37:26;;;;;;;;;;;13.90;99.90;;;;;;4977475;28;19913;-74
2021/10/25 01:39:51;;;;;;;;;;;14.00;99.90;;;;;;4977698;28;20314;-74
2021/10/25 01:42:17;;;;;;;;;;;14.10;99.90;;;;;;4977337;28;19944;-74
2021/10/25 01:44:42;;;;;;;;;;;14.10;99.90;;;;;;4977298;28;19907;-74
2021/10/25 01:47:08;;;;;;;;;;;14.10;99.90;;;;;;4977816;28;20355;-74
2021/10/25 01:49:34;;;;;;;;;;;14.10;99.90;;;;;;4977221;28;19906;-74
2021/10/25 01:52:00;;;;;;;;;;;14.10;99.90;;;;;;4977441;28;20267;-74
2021/10/25 01:54:26;;;;;;;;;;;14.00;99.90;;;;;;4977130;28;19907;-74
2021/10/25 01:56:51;;;;;;;;;;;14.00;99.90;;;;;;4977371;28;20298;-74
2021/10/25 01:59:17;;;;;;;;;;;14.00;99.90;;;;;;4977028;28;19906;-74
2021/10/25 02:01:43;;;;;;;;;;;13.90;99.90;;;;;;4977281;28;19905;-74
2021/10/25 02:04:08;;;;;;;;;;;13.90;99.90;;;;;;4977004;28;19948;-74
2021/10/25 02:06:34;;;;;;;;;;;14.00;99.90;;;;;;4977138;28;19965;-74
2021/10/25 02:09:00;;;;;;;;;;;14.00;99.90;;;;;;4977146;28;19913;-74
2021/10/25 02:11:25;;;;;;;;;;;13.90;99.90;;;;;;4977401;28;19906;-74
2021/10/25 02:13:51;;;;;;;;;;;13.90;99.90;;;;;;4976798;28;19956;-74
2021/10/25 02:16:17;;;;;;;;;;;14.00;99.90;;;;;;4977040;28;19992;-74
2021/10/25 02:18:42;;;;;;;;;;;13.90;99.90;;;;;;4976717;28;19976;-74
2021/10/25 02:21:09;;;;;;;;;;;13.90;99.90;;;;;;4976970;28;19910;-74
2021/10/25 02:23:34;;;;;;;;;;;13.90;99.90;;;;;;4976565;28;20366;-74
2021/10/25 02:26:00;;;;;;;;;;;14.00;99.90;;;;;;4976800;28;19910;-74
2021/10/25 02:28:25;;;;;;;;;;;14.00;99.90;;;;;;4976353;28;19925;-74
2021/10/25 02:30:52;;;;;;;;;;;13.90;99.90;;;;;;4975647;28;19916;-74
2021/10/25 02:33:18;;;;;;;;;;;13.90;99.90;;;;;;4976451;28;19914;-74
2021/10/25 02:35:44;;;;;;;;;;;13.90;99.90;;;;;;4976398;28;19906;-74
2021/10/25 02:38:09;;;;;;;;;;;13.80;99.90;;;;;;4976353;28;19956;-74
2021/10/25 02:40:35;;;;;;;;;;;13.80;99.90;;;;;;4976319;28;19906;-74
2021/10/25 02:43:00;;;;;;;;;;;13.70;99.90;;;;;;4976264;28;20001;-74
2021/10/25 02:45:26;;;;;;;;;;;13.70;99.90;;;;;;4976099;28;19980;-74
2021/10/25 02:47:52;;;;;;;;;;;13.70;99.90;;;;;;4976494;28;20001;-74
2021/10/25 02:50:18;;;;;;;;;;;13.70;99.90;;;;;;4976097;28;19956;-74
2021/10/25 02:52:43;;;;;;;;;;;13.70;99.90;;;;;;4976094;28;19910;-74
2021/10/25 02:55:09;;;;;;;;;;;13.60;99.90;;;;;;4976577;28;20361;-74
2021/10/25 02:57:35;;;;;;;;;;;13.70;99.90;;;;;;4975932;28;19955;-74
2021/10/25 03:00:00;;;;;;;;;;;13.70;99.90;;;;;;4975940;28;20393;-74
2021/10/25 03:02:26;;;;;;;;;;;13.70;99.90;;;;;;4976465;28;19906;-74
2021/10/25 03:04:51;;;;;;;;;;;13.70;99.90;;;;;;4975744;28;20021;-74
2021/10/25 03:07:17;;;;;;;;;;;13.60;99.90;;;;;;4976399;28;19913;-74
2021/10/25 03:09:43;;;;;;;;;;;13.60;99.90;;;;;;4976049;28;19913;-74
2021/10/25 03:12:08;;;;;;;;;;;13.50;99.90;;;;;;4975695;28;20287;-75
2021/10/25 03:14:34;;;;;;;;;;;13.60;99.90;;;;;;4975635;28;19938;-74
2021/10/25 03:16:59;;;;;;;;;;;13.70;99.90;;;;;;4975883;28;20343;-74
2021/10/25 03:19:25;;;;;;;;;;;13.70;99.90;;;;;;4975593;28;19906;-74
2021/10/25 03:21:51;;;;;;;;;;;13.60;99.90;;;;;;4976092;28;19906;-74
2021/10/25 03:24:17;;;;;;;;;;;13.60;99.90;;;;;;4975672;28;19906;-74
2021/10/25 03:26:43;;;;;;;;;;;13.60;99.90;;;;;;4975461;28;19910;-74
2021/10/25 03:29:09;;;;;;;;;;;13.60;99.90;;;;;;4976026;28;19906;-74
2021/10/25 03:31:34;;;;;;;;;;;13.60;99.90;;;;;;4975346;28;20474;-74
2021/10/25 03:34:00;;;;;;;;;;;13.60;99.90;;;;;;4975314;28;19906;-74
2021/10/25 03:36:28;;;;;;;;;;;13.60;99.90;;;;;;4975831;28;19906;-74
2021/10/25 03:38:55;;;;;;;;;;;13.60;99.90;;;;;;4974005;28;19906;-74
2021/10/25 03:41:33;;;;;;;;;;;13.60;99.90;;;;;;4989789;28;19906;-74
2021/10/25 03:44:45;;;;;;;;;;;13.60;99.90;;;;;;4975572;28;19913;-74
2021/10/25 03:49:35;;;;;;;;;;;13.50;99.90;;;;;;4975538;28;19913;-74
2021/10/25 03:52:09;;;;;;;;;;;13.50;99.90;;;;;;4989788;28;19906;-74
2021/10/25 04:27:29;;;;;;;;;;;13.50;99.90;;;;;;4974628;28;19985;-74
2021/10/25 04:30:02;;;;;;;;;;;13.50;99.90;;;;;;4975318;28;19938;-74
2021/10/25 04:32:28;;;;;;;;;;;13.50;99.90;;;;;;4975013;28;19913;-74
2021/10/25 04:34:53;;;;;;;;;;;13.50;99.90;;;;;;4974661;28;20000;-74
2021/10/25 04:37:19;;;;;;;;;;;13.50;99.90;;;;;;4989508;28;19906;-74
2021/10/25 04:39:44;;;;;;;;;;;13.40;99.90;;;;;;4974645;28;19910;-74
2021/10/25 04:42:14;;;;;;;;;;;13.50;99.90;;;;;;4974598;28;19929;-74
2021/10/25 04:44:39;;;;;;;;;;;13.40;99.90;;;;;;4975212;28;19937;-74
2021/10/25 04:47:05;;;;;;;;;;;13.30;99.90;;;;;;4974525;28;19952;-74
2021/10/25 04:49:31;;;;;;;;;;;13.40;99.90;;;;;;4975097;28;19933;-74
2021/10/25 04:51:56;;;;;;;;;;;13.40;99.90;;;;;;4974537;28;19906;-74
2021/10/25 04:54:22;;;;;;;;;;;13.40;99.90;;;;;;4977144;28;19910;-74
2021/10/25 04:56:47;;;;;;;;;;;13.40;99.90;;;;;;4978246;28;19957;-74
2021/10/25 04:59:13;;;;;;;;;;;13.40;99.90;;;;;;4978401;28;20370;-74
2021/10/25 05:01:38;;;;;;;;;;;13.30;99.90;;;;;;4978141;28;19906;-74
2021/10/25 05:04:04;;;;;;;;;;;13.30;99.90;;;;;;4993050;28;19906;-74
2021/10/25 05:06:29;;;;;;;;;;;13.30;99.90;;;;;;4978478;28;19917;-74
2021/10/25 05:08:55;;;;;;;;;;;13.30;99.90;;;;;;4977986;28;19913;-74
2021/10/25 05:11:20;;;;;;;;;;;13.30;99.90;;;;;;4992906;28;20286;-74
2021/10/25 05:13:46;;;;;;;;;;;13.20;99.90;;;;;;4978136;28;19913;-74
2021/10/25 05:16:11;;;;;;;;;;;13.20;99.90;;;;;;4976590;28;20005;-74
2021/10/25 05:18:37;;;;;;;;;;;13.20;99.90;;;;;;4977838;28;19945;-74
2021/10/25 05:21:02;;;;;;;;;;;13.20;99.90;;;;;;4976493;28;20414;-74
2021/10/25 05:23:28;;;;;;;;;;;13.20;99.90;;;;;;4977553;28;19909;-74
2021/10/25 05:25:54;;;;;;;;;;;13.00;99.90;;;;;;4977851;28;19918;-74
2021/10/25 05:28:19;;;;;;;;;;;12.90;99.90;;;;;;4977489;28;20402;-75
2021/10/25 05:30:45;;;;;;;;;;;12.90;99.90;;;;;;4977872;28;19906;-74
2021/10/25 05:33:11;;;;;;;;;;;13.00;99.90;;;;;;4992495;28;19906;-74
2021/10/25 05:35:38;;;;;;;;;;;13.10;99.90;;;;;;4977488;28;20326;-74
2021/10/25 05:38:04;;;;;;;;;;;13.00;99.90;;;;;;4977453;28;20001;-74
2021/10/25 05:40:30;;;;;;;;;;;13.10;99.90;;;;;;4977446;28;19906;-74
2021/10/25 05:42:56;;;;;;;;;;;13.00;99.90;;;;;;4977675;28;19913;-74
2021/10/25 05:45:22;;;;;;;;;;;13.00;99.90;;;;;;4977277;28;20289;-74
2021/10/25 05:47:48;;;;;;;;;;;12.90;99.90;;;;;;4977587;28;19906;-74
2021/10/25 05:50:14;;;;;;;;;;;12.80;99.90;;;;;;4977239;28;19913;-74
2021/10/25 05:52:39;;;;;;;;;;;12.80;99.90;;;;;;4977176;28;20001;-74
2021/10/25 05:55:05;;;;;;;;;;;12.90;99.90;;;;;;4977686;28;19907;-74
2021/10/25 05:57:31;;;;;;;;;;;12.70;99.90;;;;;;4977113;28;20393;-74
2021/10/25 05:59:57;;;;;;;;;;;12.70;99.90;;;;;;4977350;28;19912;-74
2021/10/25 06:04:48;;;;;;;;;;;12.70;99.90;;;;;;4976975;28;19918;-74
2021/10/25 06:07:14;;;;;;;;;;;12.70;99.90;;;;;;4976879;28;19978;-74
2021/10/25 06:09:39;;;;;;;;;;;12.70;99.90;;;;;;4977501;28;19909;-74
2021/10/25 06:12:12;;;;;;;;;;;12.60;99.90;;;;;;4976825;28;19910;-74
2021/10/25 06:14:41;;;;;;;;;;;12.50;99.90;;;;;;4977437;28;19906;-74
2021/10/25 06:17:38;;;;;;;;;;;12.50;99.90;;;;;;4977047;28;19906;-74
2021/10/25 06:20:04;;;;;;;;;;;12.40;99.90;;;;;;4977339;28;19906;-74
2021/10/25 06:22:31;;;;;;;;;;;12.40;99.90;;;;;;4976537;28;19928;-74
2021/10/25 06:24:57;;;;;;;;;;;12.40;99.90;;;;;;4977046;28;19906;-74
2021/10/25 06:27:22;;;;;;;;;;;12.40;99.90;;;;;;4976378;28;19918;-74
2021/10/25 06:29:48;;;;;;;;;;;12.40;99.90;;;;;;4976464;28;19949;-74
2021/10/25 06:32:13;;;;;;;;;;;12.60;99.90;;;;;;4977017;28;19906;-74
2021/10/25 06:34:41;;;;;;;;;;;12.60;99.90;;;;;;4976720;28;19949;-74
2021/10/25 06:37:07;;;;;;;;;;;12.50;99.90;;;;;;4976648;28;19998;-74
2021/10/25 06:39:38;;;;;;;;;;;12.50;99.90;;;;;;4975092;28;19956;-74
2021/10/25 06:42:07;;;;;;;;;;;12.40;99.90;;;;;;4976594;28;20445;-74
2021/10/25 06:44:36;;;;;;;;;;;12.50;99.90;;;;;;4976242;28;19917;-74
2021/10/25 06:47:01;;;;;;;;;;;12.40;99.90;;;;;;4976404;28;19910;-74
2021/10/25 06:49:28;;;;;;;;;;;12.30;99.90;;;;;;4976151;28;19912;-74
2021/10/25 06:51:54;;;;;;;;;;;12.40;99.90;;;;;;4976646;28;19928;-74
2021/10/25 06:54:20;;;;;;;;;;;12.40;99.90;;;;;;4976040;28;20366;-75
2021/10/25 06:56:45;;;;;;;;;;;12.40;99.90;;;;;;4976277;28;20009;-74
2021/10/25 06:59:11;;;;;;;;;;;12.40;99.90;;;;;;4975958;28;19910;-75
2021/10/25 07:01:36;;;;;;;;;;;12.50;99.90;;;;;;4974665;28;19969;-74
2021/10/25 07:04:02;;;;;;;;;;;12.50;99.90;;;;;;4976397;28;19917;-74
2021/10/25 07:06:30;;;;;;;;;;;12.40;99.90;;;;;;4975762;28;20000;-74
2021/10/25 07:08:56;;;;;;;;;;;12.40;99.90;;;;;;4975739;28;19910;-74
2021/10/25 07:11:22;;;;;;;;;;;12.40;99.90;;;;;;4976296;28;19909;-74
2021/10/25 07:13:50;;;;;;;;;;;12.40;99.90;;;;;;4975847;28;20453;-74
2021/10/25 07:19:51;;;;;;;;;;;12.50;99.90;;;;;;4977659;28;19916;-80
2021/10/25 08:05:35;;;;;;;;;;;13.10;99.90;;;;;;4976572;28;19957;-76
2021/10/25 08:10:52;;;;;;;;;;;13.30;99.90;;;;;;4975219;28;20405;-77
2021/10/25 08:13:18;;;;;;;;;;;13.30;99.90;;;;;;4988567;28;19909;-77
2021/10/25 08:15:47;;;;;;;;;;;13.40;99.90;;;;;;4994947;28;19906;-77
2021/10/25 08:20:58;;;;;;;;;;;13.80;99.90;;;;;;4994630;28;20011;-80
2021/10/25 08:23:24;;;;;;;;;;;13.90;99.90;;;;;;4983691;28;20374;-76
2021/10/25 08:25:49;;;;;;;;;;;14.10;99.90;;;;;;4978013;28;19913;-75
2021/10/25 08:28:15;;;;;;;;;;;14.30;99.90;;;;;;4996476;28;19921;-76
2021/10/25 08:30:41;;;;;;;;;;;14.30;99.90;;;;;;4997015;28;19909;-73
2021/10/25 08:33:13;;;;;;;;;;;14.40;99.90;;;;;;4998170;28;19905;-77
2021/10/25 08:35:56;;;;;;;;;;;14.70;99.90;;;;;;4983199;28;19957;-78
2021/10/25 08:41:06;;;;;;;;;;;14.90;99.90;;;;;;4993648;28;20381;-85
2021/10/25 08:43:34;;;;;;;;;;;14.80;99.90;;;;;;4996792;28;19989;-82
2021/10/25 08:46:04;;;;;;;;;;;14.90;99.90;;;;;;4997718;28;19948;-83
2021/10/25 08:48:30;;;;;;;;;;;15.10;99.90;;;;;;4995234;28;19913;-82
2021/10/25 08:50:56;;;;;;;;;;;15.00;99.90;;;;;;4978866;28;19906;-77
2021/10/25 08:53:22;;;;;;;;;;;14.90;99.90;;;;;;4978770;28;19921;-78
2021/10/25 08:55:50;;;;;;;;;;;14.80;99.90;;;;;;4979218;28;19905;-79
2021/10/25 08:58:16;;;;;;;;;;;14.80;99.90;;;;;;4993244;28;19957;-81
2021/10/25 09:00:44;;;;;;;;;;;14.80;99.90;;;;;;4978123;28;19913;-79
2021/10/25 09:03:09;;;;;;;;;;;14.70;99.90;;;;;;4989654;28;19957;-79
2021/10/25 09:05:35;;;;;;;;;;;14.70;99.90;;;;;;5012529;28;20365;-78
2021/10/25 09:08:03;;;;;;;;;;;14.70;99.90;;;;;;4993506;28;19957;-79
2021/10/25 09:10:39;;;;;;;;;;;14.70;99.90;;;;;;4982064;28;19913;-78
2021/10/25 09:13:06;;;;;;;;;;;14.70;99.90;;;;;;4990015;28;19910;-76
2021/10/25 09:15:33;;;;;;;;;;;14.60;99.90;;;;;;4988767;28;19910;-78
2021/10/25 09:18:09;;;;;;;;;;;14.60;99.90;;;;;;4992599;28;19917;-80
2021/10/25 09:20:42;;;;;;;;;;;14.60;99.90;;;;;;4985287;28;19910;-79
2021/10/25 09:23:08;;;;;;;;;;;14.50;99.90;;;;;;4977639;28;19910;-81
2021/10/25 09:25:34;;;;;;;;;;;14.60;99.90;;;;;;4985772;28;20044;-77
2021/10/25 09:28:00;;;;;;;;;;;14.60;99.90;;;;;;4991006;28;19943;-83
2021/10/25 09:30:26;;;;;;;;;;;14.70;99.90;;;;;;4986888;28;19905;-78
2021/10/25 09:32:52;;;;;;;;;;;14.90;99.90;;;;;;4997389;28;19905;-80
2021/10/25 09:35:30;;;;;;;;;;;15.10;99.90;;;;;;4988672;28;19910;-80
2021/10/25 09:38:04;;;;;;;;;;;15.10;99.90;;;;;;4978085;28;20405;-78
2021/10/25 09:40:49;;;;;;;;;;;15.10;99.90;;;;;;4977054;28;19917;-77
2021/10/25 09:50:53;;;;;;;;;;;15.10;99.90;;;;;;4996690;28;19916;-75
2021/10/25 09:53:29;;;;;;;;;;;15.00;99.90;;;;;;4996517;28;19912;-73
2021/10/25 09:55:55;;;;;;;;;;;15.10;99.90;;;;;;4998657;28;19916;-73
2021/10/25 09:58:23;;;;;;;;;;;15.10;99.90;;;;;;4979962;28;20288;-74
2021/10/25 10:00:49;;;;;;;;;;;15.20;99.90;;;;;;4977422;28;19906;-72
2021/10/25 10:03:15;;;;;;;;;;;15.50;99.90;;;;;;4978498;28;20366;-72
2021/10/25 10:05:43;;;;;;;;;;;15.50;99.90;;;;;;4980206;28;19921;-79
2021/10/25 10:08:09;;;;;;;;;;;15.50;99.90;;;;;;4986969;28;19932;-75
2021/10/25 10:10:35;;;;;;;;;;;15.50;99.90;;;;;;4990172;28;19964;-75
2021/10/25 10:13:02;;;;;;;;;;;15.40;99.90;;;;;;4993115;28;19909;-77
2021/10/25 10:15:29;;;;;;;;;;;15.30;99.90;;;;;;4978668;28;20355;-75
2021/10/25 10:18:00;;;;;;;;;;;15.40;99.90;;;;;;4978304;28;19993;-75
2021/10/25 10:20:26;;;;;;;;;;;15.30;99.90;;;;;;4977344;28;20314;-74
2021/10/25 10:22:53;;;;;;;;;;;15.40;99.90;;;;;;4976121;28;19910;-77
2021/10/25 10:25:27;;;;;;;;;;;15.40;99.90;;;;;;4976363;28;20009;-77
2021/10/25 10:27:57;;;;;;;;;;;15.50;99.90;;;;;;4992427;28;20375;-77
2021/10/25 10:30:22;;;;;;;;;;;15.70;99.90;;;;;;4996000;28;20405;-80
2021/10/25 10:32:56;;;;;;;;;;;15.70;99.90;;;;;;4991650;28;19906;-78
2021/10/25 10:35:22;;;;;;;;;;;15.50;99.90;;;;;;4978642;28;19960;-74
2021/10/25 10:37:57;;;;;;;;;;;15.50;99.90;;;;;;4975358;28;19946;-74
2021/10/25 10:40:24;;;;;;;;;;;15.50;99.90;;;;;;4974308;28;19915;-75
2021/10/25 10:42:51;;;;;;;;;;;15.50;99.90;;;;;;4974767;28;19906;-75
2021/10/25 10:45:18;;;;;;;;;;;15.50;99.90;;;;;;4973307;28;19993;-73
2021/10/25 10:48:00;;;;;;;;;;;15.50;99.90;;;;;;4973414;28;19909;-74
2021/10/25 10:50:39;;;;;;;;;;;15.40;99.90;;;;;;4971484;28;20283;-76
2021/10/25 10:53:18;;;;;;;;;;;15.40;99.90;;;;;;4973826;28;19948;-75
2021/10/25 10:55:50;;;;;;;;;;;15.40;99.90;;;;;;4974233;28;20390;-73
2021/10/25 10:58:28;;;;;;;;;;;15.50;99.90;;;;;;4974676;28;19913;-75
2021/10/25 11:01:01;;;;;;;;;;;15.50;99.90;;;;;;4976327;28;19913;-75
2021/10/25 11:03:30;;;;;;;;;;;15.70;99.90;;;;;;4975887;28;19906;-75
2021/10/25 11:06:19;;;;;;;;;;;15.80;99.90;;;;;;4975788;28;19917;-75
2021/10/25 11:08:45;;;;;;;;;;;15.80;99.90;;;;;;4976098;28;19906;-74
2021/10/25 11:11:12;;;;;;;;;;;15.90;99.90;;;;;;4975802;28;19906;-73
2021/10/25 11:13:48;;;;;;;;;;;15.90;99.90;;;;;;5174329;27;19918;-74
2021/10/25 11:18:45;;;;;;;;;;;15.90;99.90;;;;;;5174459;27;19914;-74
2021/10/25 11:21:21;;;;;;;;;;;15.90;99.90;;;;;;5173538;27;19907;-69
2021/10/25 11:23:59;;;;;;;;;;;16.00;99.90;;;;;;5157299;27;19914;-73
2021/10/25 11:26:27;;;;;;;;;;;16.00;99.90;;;;;;5152936;27;19907;-71
2021/10/25 11:28:58;;;;;;;;;;;16.10;99.90;;;;;;5134032;27;19914;-73
2021/10/25 11:31:24;;;;;;;;;;;16.10;99.90;;;;;;5152758;27;19994;-72
2021/10/25 11:33:50;;;;;;;;;;;16.10;99.90;;;;;;5152441;27;19955;-72
2021/10/25 11:36:17;;;;;;;;;;;16.20;99.90;;;;;;5152422;27;19908;-74
2021/10/25 11:38:43;;;;;;;;;;;16.30;99.90;;;;;;5152398;27;19943;-73
2021/10/25 11:41:09;;;;;;;;;;;16.30;99.90;;;;;;5152389;27;19915;-74
2021/10/25 11:43:35;;;;;;;;;;;16.30;99.90;;;;;;5152261;27;19907;-74
2021/10/25 11:46:00;;;;;;;;;;;16.30;99.90;;;;;;5152544;27;19907;-75
2021/10/25 11:48:30;;;;;;;;;;;16.30;99.90;;;;;;5152177;27;20287;-73
2021/10/25 11:51:00;;;;;;;;;;;16.30;99.90;;;;;;5152431;27;19911;-72
2021/10/25 11:53:29;;;;;;;;;;;16.30;99.90;;;;;;5151989;27;20056;-70
2021/10/25 11:55:55;;;;;;;;;;;16.30;99.90;;;;;;5152056;27;19968;-71
2021/10/25 11:58:23;;;;;;;;;;;16.20;99.90;;;;;;5151986;27;19911;-73
2021/10/25 12:00:51;;;;;;;;;;;16.30;99.90;;;;;;5152477;27;19907;-73
2021/10/25 12:03:19;;;;;;;;;;;16.20;99.90;;;;;;5151880;27;19911;-74
2021/10/25 12:05:45;;;;;;;;;;;16.20;99.90;;;;;;5152400;27;19914;-71
2021/10/25 12:08:12;;;;;;;;;;;16.20;99.90;;;;;;5151764;27;19907;-70
2021/10/25 12:10:38;;;;;;;;;;;16.30;99.90;;;;;;5152013;27;20283;-69
2021/10/25 12:13:06;;;;;;;;;;;16.40;99.90;;;;;;5150848;27;19920;-71
2021/10/25 12:15:32;;;;;;;;;;;16.50;99.90;;;;;;5151040;27;19911;-74
2021/10/25 12:17:59;;;;;;;;;;;16.60;99.90;;;;;;5150318;27;19911;-79
2021/10/25 12:20:32;;;;;;;;;;;16.60;99.90;;;;;;5151593;27;19907;-75
2021/10/25 12:22:59;;;;;;;;;;;16.70;99.90;;;;;;5150135;27;19939;-75
2021/10/25 12:25:24;;;;;;;;;;;16.90;99.90;;;;;;5136898;27;20305;-76
2021/10/25 12:27:50;;;;;;;;;;;17.10;99.90;;;;;;5136593;27;19912;-75
2021/10/25 12:30:17;;;;;;;;;;;17.30;99.90;;;;;;5137576;27;20360;-76
2021/10/25 12:32:52;;;;;;;;;;;17.30;99.90;;;;;;5136882;27;19922;-75
2021/10/25 12:35:28;;;;;;;;;;;17.30;99.90;;;;;;5136750;27;19919;-73
2021/10/25 12:37:57;;;;;;;;;;;17.40;99.90;;;;;;5137702;27;20384;-76
2021/10/25 12:40:23;;;;;;;;;;;17.40;99.90;;;;;;5136607;27;19927;-77
2021/10/25 12:42:48;;;;;;;;;;;17.50;99.90;;;;;;5137626;27;19907;-76
2021/10/25 12:45:15;;;;;;;;;;;17.60;99.90;;;;;;5136957;27;19930;-73
2021/10/25 12:47:40;;;;;;;;;;;17.70;99.90;;;;;;5137244;27;19915;-74
2021/10/25 12:50:07;;;;;;;;;;;17.70;99.90;;;;;;5136857;27;19911;-77
2021/10/25 12:52:32;;;;;;;;;;;17.70;99.90;;;;;;5137078;27;20006;-76
2021/10/25 12:54:58;;;;;;;;;;;17.80;99.90;;;;;;5136772;27;19951;-77
2021/10/25 12:57:26;;;;;;;;;;;17.70;99.90;;;;;;5136880;27;19911;-76
2021/10/25 12:59:58;;;;;;;;;;;17.70;99.90;;;;;;5136591;27;19911;-76
2021/10/25 13:02:24;;;;;;;;;;;17.60;99.90;;;;;;5136097;27;19911;-73
2021/10/25 13:04:50;;;;;;;;;;;17.60;99.90;;;;;;5136473;27;19918;-76
2021/10/25 13:07:19;;;;;;;;;;;17.70;99.90;;;;;;5137100;27;19908;-72
2021/10/25 13:09:52;;;;;;;;;;;17.60;99.90;;;;;;5136558;27;19981;-76
2021/10/25 13:12:17;;;;;;;;;;;17.70;99.90;;;;;;5136530;27;20008;-75
2021/10/25 13:14:43;;;;;;;;;;;17.80;99.90;;;;;;5135980;27;19915;-74
2021/10/25 13:17:09;;;;;;;;;;;17.90;99.90;;;;;;5136684;27;19915;-75
2021/10/25 13:19:34;;;;;;;;;;;17.80;99.90;;;;;;5136129;27;20320;-75
2021/10/25 13:22:00;;;;;;;;;;;17.50;99.90;;;;;;5136524;27;20425;-78
2021/10/25 13:24:26;;;;;;;;;;;17.30;99.90;;;;;;5136165;27;20264;-73
2021/10/25 13:26:51;;;;;;;;;;;17.20;99.90;;;;;;5136502;27;20331;-73
2021/10/25 13:29:17;;;;;;;;;;;17.10;99.90;;;;;;5136075;27;20287;-73
2021/10/25 13:31:43;;;;;;;;;;;17.00;99.90;;;;;;5136262;27;19912;-72
2021/10/25 13:34:09;;;;;;;;;;;16.90;99.90;;;;;;5117391;27;19911;-70
2021/10/25 13:36:34;;;;;;;;;;;16.90;99.90;;;;;;5134952;27;19915;-73
2021/10/25 13:39:00;;;;;;;;;;;16.80;99.90;;;;;;5136166;27;19908;-73
2021/10/25 13:41:26;;;;;;;;;;;16.80;99.90;;;;;;5135654;27;19958;-74
2021/10/25 13:43:52;;;;;;;;;;;16.80;99.90;;;;;;5135836;27;20379;-73
2021/10/25 13:46:19;;;;;;;;;;;16.90;99.90;;;;;;5136067;27;19918;-73
2021/10/25 13:48:44;;;;;;;;;;;16.90;99.90;;;;;;5135426;27;20032;-73
2021/10/25 13:51:10;;;;;;;;;;;16.90;99.90;;;;;;5136547;27;19940;-74
2021/10/25 13:53:36;;;;;;;;;;;16.90;99.90;;;;;;5135286;27;19963;-73
2021/10/25 13:56:02;;;;;;;;;;;16.90;99.90;;;;;;5135655;27;19991;-77
2021/10/25 13:58:28;;;;;;;;;;;16.90;99.90;;;;;;5135422;27;19911;-73
2021/10/25 14:00:53;;;;;;;;;;;16.90;99.90;;;;;;5135864;27;20390;-72
2021/10/25 14:03:19;;;;;;;;;;;16.80;99.90;;;;;;5135213;27;20007;-72
2021/10/25 14:05:46;;;;;;;;;;;16.80;99.90;;;;;;5134770;27;19912;-74
2021/10/25 14:08:12;;;;;;;;;;;16.90;99.90;;;;;;5135466;27;19915;-73
2021/10/25 14:10:49;;;;;;;;;;;16.90;99.90;;;;;;5135287;27;19923;-74
2021/10/25 14:13:19;;;;;;;;;;;17.00;99.90;;;;;;5134938;27;20340;-73
2021/10/25 14:15:45;;;;;;;;;;;17.00;99.90;;;;;;5135529;27;19913;-76
2021/10/25 14:18:12;;;;;;;;;;;17.00;99.90;;;;;;5135174;27;19934;-75
2021/10/25 14:20:37;;;;;;;;;;;17.00;99.90;;;;;;5131560;27;20298;-73
2021/10/25 14:23:04;;;;;;;;;;;17.00;99.90;;;;;;5135340;27;19907;-72
2021/10/25 14:25:30;;;;;;;;;;;17.00;99.90;;;;;;5135580;27;19907;-71
2021/10/25 14:27:56;;;;;;;;;;;17.20;99.90;;;;;;5134908;27;19956;-73
2021/10/25 14:30:22;;;;;;;;;;;17.20;99.90;;;;;;5134553;27;20002;-72
2021/10/25 14:32:48;;;;;;;;;;;17.30;99.90;;;;;;5128343;27;19920;-71
2021/10/25 14:35:14;;;;;;;;;;;17.40;99.90;;;;;;5129792;27;19912;-72
2021/10/25 14:37:42;;;;;;;;;;;17.40;99.90;;;;;;5135143;27;20287;-71
2021/10/25 14:40:11;;;;;;;;;;;17.40;99.90;;;;;;5134458;27;20059;-72
2021/10/25 14:42:37;;;;;;;;;;;17.50;99.90;;;;;;5133389;27;19915;-72
2021/10/25 14:45:19;;;;;;;;;;;17.50;99.90;;;;;;5133007;27;19907;-70
2021/10/25 14:48:39;;;;;;;;;;;17.40;99.90;;;;;;5115994;27;20398;-72
2021/10/25 14:55:47;;;;;;;;;;;17.20;99.90;;;;;;5134870;27;19913;-70
2021/10/25 14:58:14;;;;;;;;;;;17.10;99.90;;;;;;5116431;27;19915;-70
2021/10/25 15:00:41;;;;;;;;;;;16.90;99.90;;;;;;5135428;27;19915;-69
2021/10/25 15:03:07;;;;;;;;;;;16.70;99.90;;;;;;5135048;27;19952;-70
2021/10/25 15:05:33;;;;;;;;;;;16.60;99.90;;;;;;5135077;27;19907;-72
2021/10/25 15:07:59;;;;;;;;;;;16.60;99.90;;;;;;5134733;27;19958;-70
2021/10/25 15:10:24;;;;;;;;;;;16.60;99.90;;;;;;5135338;28;19908;-69
2021/10/25 15:12:50;;;;;;;;;;;16.70;99.90;;;;;;5134425;28;19919;-73
2021/10/25 15:15:16;;;;;;;;;;;16.50;99.90;;;;;;5134647;28;19928;-71
2021/10/25 15:17:42;;;;;;;;;;;16.50;99.90;;;;;;5134666;28;19914;-68
2021/10/25 15:20:08;;;;;;;;;;;16.40;99.90;;;;;;5134613;28;20293;-73
2021/10/25 15:22:33;;;;;;;;;;;16.30;99.90;;;;;;5134691;27;19907;-70
2021/10/25 15:24:59;;;;;;;;;;;16.30;99.90;;;;;;5134634;28;19942;-69
2021/10/25 15:27:25;;;;;;;;;;;16.30;99.90;;;;;;5134617;28;19914;-70
2021/10/25 15:29:54;;;;;;;;;;;16.40;99.90;;;;;;5134545;28;19907;-73
2021/10/25 15:32:27;;;;;;;;;;;16.40;99.90;;;;;;5134694;28;19912;-71
2021/10/25 15:34:53;;;;;;;;;;;16.30;99.90;;;;;;5134133;28;19908;-71
2021/10/25 15:37:20;;;;;;;;;;;16.30;99.90;;;;;;5133344;28;19908;-71
2021/10/25 15:39:46;;;;;;;;;;;16.30;99.90;;;;;;5134399;28;19908;-69
2021/10/25 15:42:16;;;;;;;;;;;16.30;99.90;;;;;;5133742;28;20324;-72
2021/10/25 15:44:44;;;;;;;;;;;16.30;99.90;;;;;;5132965;28;19907;-70
2021/10/25 15:47:11;;;;;;;;;;;16.40;99.90;;;;;;5132915;28;19908;-72
2021/10/25 15:49:37;;;;;;;;;;;16.40;99.90;;;;;;5132918;28;19914;-70
2021/10/25 15:52:03;;;;;;;;;;;16.40;99.90;;;;;;5132824;28;19961;-71
2021/10/25 15:54:31;;;;;;;;;;;16.40;99.90;;;;;;5132884;28;19946;-71
2021/10/25 15:56:56;;;;;;;;;;;16.40;99.90;;;;;;5133236;28;20283;-70
2021/10/25 15:59:22;;;;;;;;;;;16.40;99.90;;;;;;5136670;27;19914;-71
2021/10/25 16:01:47;;;;;;;;;;;16.40;99.90;;;;;;5138183;27;19912;-71
2021/10/25 16:04:14;;;;;;;;;;;16.40;99.90;;;;;;5138155;27;19914;-71